AirNav   Pilot Hours Calculator
 
 903 users online  

KDUH Toledo Suburban Airport
Lambertville, Michigan, USA

GOING TO LAMBERTVILLE?


FAA INFORMATION EFFECTIVE 31 DECEMBER 2020

Location

FAA Identifier: DUH
Lat/Long: 41-44-09.1500N 083-39-20.7500W
41-44.152500N 083-39.345833W
41.7358750,-83.6557639
(estimated)
Elevation: 671 ft. / 204.5 m (surveyed)
Variation: 07W (2020)
From city: 2 miles SW of LAMBERTVILLE, MI
Time zone: UTC -5 (UTC -4 during Daylight Saving Time)
Zip code: 49267

Airport Operations

Airport use: Open to the public
Activation date: 07/1955
Control tower: no
ARTCC: CLEVELAND CENTER
FSS: LANSING FLIGHT SERVICE STATION
NOTAMs facility: DUH (NOTAM-D service available)
Attendance: 0800-1700
Wind indicator: lighted
Segmented circle: yes
Lights: ACTVT MIRL RWY 09/27 - CTAF.
Beacon: white-green (lighted land airport)
Operates sunset to sunrise.

Airport Communications

CTAF/UNICOM: 122.7
WX AWOS-3: 119.175 (734-856-1563)
TOLEDO APPROACH: 126.1 [0530-0000]
TOLEDO DEPARTURE: 126.1 [0530-0000]
WX ASOS at TOL (11 nm SW): PHONE 419-865-6924
WX ASOS at TDZ (13 nm SE): 121.575 (419-838-5034)
WX AWOS-3 at TTF (16 nm NE): 119.075 (734-384-0259)

Nearby radio navigation aids

VOR radial/distance  VOR name  Freq  Var
CRLr208/20.7CARLETON VOR/DME115.7003W
DXOr210/31.4DETROIT VOR/DME113.4006W

 
NDB name  Hdg/Dist  Freq  Var  ID
ADRIAN119/20.527806WADG .- -.. --.
TECUMSEH156/20.623906WTCU - -.-. ..-
GROSSE ILE233/31.441907WRYS .-. -.-- ...
PORT CLINTON297/37.642307WPCW .--. -.-. .--

Airport Services

Fuel available: 100LL
Parking: hangars and tiedowns
Airframe service: MAJOR
Powerplant service: MAJOR

Runway Information

Runway 9/27

Dimensions: 4807 x 50 ft. / 1465 x 15 m
Surface: asphalt, in fair condition
Runway edge lights: medium intensity
NSTD MIRL 15 FT FROM PAVEMENT EDGE.
RUNWAY 9  RUNWAY 27
Latitude: 41-44.130167N41-44.173000N
Longitude: 083-39.874167W083-38.819000W
Elevation: 665.3 ft.667.1 ft.
Traffic pattern: leftleft
Runway heading: 094 magnetic, 087 true274 magnetic, 267 true
Displaced threshold: 1274 ft.992 ft.
Markings: basic, in good conditionbasic, in good condition
Runway end identifier lights: nono
Touchdown point: yes, no lightsyes, no lights
Obstructions: 8 ft. trees, 201 ft. from runway, 80 ft. left of centerline
8 FT BRUSH 201 FT DSTC 80 FT L.
82 ft. trees, 660 ft. from runway, 5:1 slope to clear
APCH RATIO 14:1 AT DSPLCD OVER 90 FT TREES 1288 FT DSTC, 205 FT L.

Airport Ownership and Management from official FAA records

Ownership: Privately-owned
Owner: SUBURBAN HOLDINGS INC.
4383 SECTION RD
OTTAWA LAKE, MI 49267
Phone 734-856-6103
Manager: THOMAS TRUMBULL
4383 SECTION RD
OTTAWA LAKE, MI 49267
Phone 734-856-6103

Airport Operational Statistics

Aircraft based on the field: 29
Single engine airplanes: 28
Helicopters: 1
    
Aircraft operations: avg 47/day *
76% local general aviation
24% transient general aviation
* for 12-month period ending 31 December 2017

Additional Remarks

4 FT FENCE 110 FT N SIDE OF RWY. CROPS 50 FT S SIDE OF RWY IN PRIM SFC.
DEER ON & INVOF ARPT.
FOR CD CTC TOLEDO APCH AT 419-865-1495

Instrument Procedures

NOTE: All procedures below are presented as PDF files. If you need a reader for these files, you should download the free Adobe Reader.

NOT FOR NAVIGATION. Please procure official charts for flight.
FAA instrument procedures published for use from 31 December 2020 at 0901Z to 28 January 2021 at 0900Z.

 
IAPs - Instrument Approach Procedures
RNAV (GPS)-A   download (143KB)
NOTE: Special Take-Off Minimums/Departure Procedures apply   download (122KB)

Other nearby airports with instrument procedures:

KTOL - Eugene F Kranz Toledo Express Airport (11 nm SW)
KTDZ - Toledo Exec Airport (13 nm SE)
KTTF - Custer Airport (16 nm NE)
KADG - Lenawee County Airport (20 nm NW)
1G0 - Wood County Airport (21 nm S)
 
Loc | Ops | Rwys | IFR | FBO | Links
Com | Nav | Svcs | Stats | Notes
Area around KDUH (Toledo Suburban Airport)
 
Road maps at: MapQuest Bing Google
 
Aerial photo
WARNING: Photo may not be current or correct
Aerial photo of KDUH (Toledo Suburban Airport)
Photo taken 29-Oct-2005
Final approach Runway 27

Do you have a better or more recent aerial photo of Toledo Suburban Airport that you would like to share? If so, please send us your photo.

 
Sectional chart

 
Airport distance calculator
Flying to Toledo Suburban Airport? Find the distance to fly.

From to KDUH

Sunrise and sunset
Times for 15-Jan-2021
 Local
(UTC-5)
 Zulu
(UTC)
Morning civil twilight07:3012:30
Sunrise08:0113:01
Sunset17:2822:28
Evening civil twilight17:5822:58

Current date and time
Zulu (UTC)  16-Jan-2021 03:36:24
Local (UTC-5)  15-Jan-2021 22:36:24
 
METAR
KDUH 160315Z AUTO 00000KT 10SM CLR M01/M02 A2963 RMK AO2 T10061016
KTOL 
11nm SW 
160318Z AUTO 17003KT 9SM FEW004 FEW029 M01/M02 A2962 RMK AO2 T10061022
KTDZ 
13nm SE 
160253Z AUTO 17006KT 9SM CLR M02/M03 A2964 RMK AO2 SLP041 I1000 I3000 T10171028 50002 $
KTTF 
16nm NE 
160316Z AUTO 21007KT 10SM CLR M01/M02 A2962 RMK AO2 T10101020
TAF
KTOL 
11nm SW 
151743Z 1518/1618 22007KT P6SM BKN015 TEMPO 1518/1519 BKN005 FM152000 22005KT P6SM BKN050 FM160600 23005KT 5SM BR BKN070 FM161200 27005KT P6SM BKN030
NOTAMs
Click for the latest NOTAMs
NOTAMs are issued by the DoD/FAA and will open in a separate window not controlled by AirNav.

 

 
 

Would you like to see your business listed on this page?

 If your business provides an interesting product or service to pilots, flight crews, aircraft, or users of the Toledo Suburban Airport, you should consider listing it here.  To start the listing process, click on the button below
 
Add a business
 

Other Pages about Toledo Suburban Airport

Page from the Michigan Airport Directory (PDF)
 
Update a link
 
Copyright © AirNav, LLC. All rights reserved. Privacy Policy  Contact